Time;durP1;ratioP1;P1;durP2;ratioP2;P2;SDS_P1;SDS_P2;PMS_P1;PMS_P2;Temp;Humidity;BMP_temperature;BMP_pressure;BME280_temperature;BME280_humidity;BME280_pressure;Samples;Min_cycle;Max_cycle;Signal;HPM_P1;HPM_P2
2021/12/21 00:00:12;;;;;;;58.60;23.65;;;;;;;;;;5042289;28;20113;-73
2021/12/21 00:02:47;;;;;;;63.20;23.75;;;;;;;;;;5060511;28;20037;-73
2021/12/21 00:05:20;;;;;;;56.08;24.75;;;;;;;;;;5041011;28;20111;-73
2021/12/21 00:07:48;;;;;;;54.83;24.40;;;;;;;;;;5043377;28;20032;-73
2021/12/21 00:10:14;;;;;;;75.72;27.33;;;;;;;;;;5041732;28;20041;-72
2021/12/21 00:12:51;;;;;;;66.20;26.88;;;;;;;;;;5041928;28;20025;-71
2021/12/21 00:15:33;;;;;;;78.20;29.10;;;;;;;;;;5042757;28;20152;-73
2021/12/21 00:18:14;;;;;;;75.90;27.70;;;;;;;;;;5055591;28;20017;-73
2021/12/21 00:26:01;;;;;;;71.95;26.42;;;;;;;;;;5039077;28;20467;-73
2021/12/21 00:28:32;;;;;;;67.43;26.23;;;;;;;;;;5042879;28;20391;-73
2021/12/21 00:30:58;;;;;;;67.90;27.20;;;;;;;;;;5046175;28;20032;-70
2021/12/21 00:33:24;;;;;;;64.53;27.70;;;;;;;;;;5038182;28;20029;-73
2021/12/21 00:35:50;;;;;;;69.47;28.23;;;;;;;;;;5045518;28;20029;-73
2021/12/21 00:38:16;;;;;;;78.47;29.40;;;;;;;;;;5043969;28;20559;-72
2021/12/21 00:40:42;;;;;;;71.90;28.20;;;;;;;;;;5040573;28;20037;-73
2021/12/21 00:43:08;;;;;;;68.40;27.00;;;;;;;;;;5054788;28;20042;-74
2021/12/21 00:45:34;;;;;;;59.25;24.75;;;;;;;;;;5032123;28;20036;-72
2021/12/21 00:48:01;;;;;;;63.63;25.48;;;;;;;;;;5032945;28;20089;-73
2021/12/21 00:50:29;;;;;;;79.60;29.27;;;;;;;;;;5042124;28;20035;-73
2021/12/21 00:52:55;;;;;;;67.10;27.90;;;;;;;;;;5039918;28;20033;-71
2021/12/21 00:55:21;;;;;;;72.50;28.73;;;;;;;;;;5045177;28;20094;-73
2021/12/21 00:57:47;;;;;;;65.45;27.98;;;;;;;;;;5041234;28;20493;-73
2021/12/21 01:00:15;;;;;;;58.58;26.17;;;;;;;;;;5038797;28;20025;-72
2021/12/21 01:02:42;;;;;;;58.88;25.70;;;;;;;;;;5042239;28;20029;-72
2021/12/21 01:05:16;;;;;;;52.17;25.02;;;;;;;;;;5042567;28;20041;-72
2021/12/21 01:07:46;;;;;;;56.60;24.90;;;;;;;;;;5054081;28;20040;-72
2021/12/21 01:10:49;;;;;;;50.80;25.38;;;;;;;;;;5038542;28;20449;-73
2021/12/21 01:16:24;;;;;;;44.65;23.33;;;;;;;;;;5000461;28;20037;-72
2021/12/21 01:21:34;;;;;;;45.13;23.58;;;;;;;;;;5036934;28;20162;-73
2021/12/21 01:24:14;;;;;;;49.60;23.20;;;;;;;;;;5037335;28;20017;-72
2021/12/21 01:34:48;;;;;;;48.80;22.67;;;;;;;;;;5041783;28;20042;-70
2021/12/21 01:40:11;;;;;;;52.30;22.77;;;;;;;;;;5042028;28;20029;-70
2021/12/21 01:50:47;;;;;;;57.80;24.13;;;;;;;;;;5037017;28;20109;-70
2021/12/21 01:53:13;;;;;;;61.72;25.10;;;;;;;;;;5042705;28;20059;-70
2021/12/21 01:55:40;;;;;;;58.35;25.80;;;;;;;;;;5038950;28;20487;-70
2021/12/21 01:58:06;;;;;;;56.15;25.13;;;;;;;;;;5041636;28;20716;-72
2021/12/21 02:00:32;;;;;;;66.20;25.23;;;;;;;;;;5043480;28;20041;-72
2021/12/21 02:02:58;;;;;;;54.58;24.38;;;;;;;;;;5035874;28;20155;-73
2021/12/21 02:05:24;;;;;;;56.25;22.90;;;;;;;;;;5038415;28;20116;-72
2021/12/21 02:07:50;;;;;;;55.38;22.98;;;;;;;;;;5041363;28;20044;-72
2021/12/21 02:10:16;;;;;;;54.35;22.70;;;;;;;;;;5037496;28;20096;-72
2021/12/21 02:12:42;;;;;;;55.55;24.20;;;;;;;;;;5038017;28;20478;-72
2021/12/21 02:15:11;;;;;;;63.25;24.27;;;;;;;;;;5041970;28;20021;-72
2021/12/21 02:20:15;;;;;;;52.80;23.17;;;;;;;;;;5041110;28;20041;-71
2021/12/21 02:22:51;;;;;;;66.38;25.35;;;;;;;;;;5039037;28;20029;-71
2021/12/21 02:28:09;;;;;;;62.40;24.77;;;;;;;;;;5041747;28;20469;-71
2021/12/21 02:30:37;;;;;;;58.33;24.05;;;;;;;;;;5035930;28;20195;-70
2021/12/21 02:33:03;;;;;;;75.85;24.58;;;;;;;;;;5042444;28;20033;-70
2021/12/21 02:35:30;;;;;;;60.17;24.63;;;;;;;;;;5043208;28;20064;-70
2021/12/21 02:37:56;;;;;;;69.90;26.02;;;;;;;;;;5038345;28;20115;-71
2021/12/21 02:40:22;;;;;;;56.28;24.02;;;;;;;;;;5034495;28;20033;-70
2021/12/21 02:42:48;;;;;;;72.60;25.83;;;;;;;;;;5044831;28;20037;-70
2021/12/21 02:45:14;;;;;;;64.35;25.70;;;;;;;;;;5038544;28;20029;-71
2021/12/21 02:47:40;;;;;;;69.72;25.35;;;;;;;;;;5039928;28;20105;-71
2021/12/21 02:50:07;;;;;;;73.15;26.80;;;;;;;;;;5041348;28;20517;-71
2021/12/21 02:52:33;;;;;;;65.30;24.83;;;;;;;;;;5045369;28;20052;-71
2021/12/21 02:55:00;;;;;;;64.40;26.23;;;;;;;;;;5041385;28;20116;-71
2021/12/21 02:57:26;;;;;;;65.70;25.63;;;;;;;;;;5059338;28;20087;-70
2021/12/21 02:59:53;;;;;;;62.80;24.38;;;;;;;;;;5041216;28;20039;-70
2021/12/21 03:02:19;;;;;;;61.40;23.30;;;;;;;;;;5044243;28;20078;-70
2021/12/21 03:04:46;;;;;;;56.30;23.45;;;;;;;;;;5042871;28;20025;-69
2021/12/21 03:10:00;;;;;;;55.40;22.80;;;;;;;;;;5041590;28;20033;-72
2021/12/21 03:13:51;;;;;;;65.82;23.35;;;;;;;;;;5042487;28;20044;-70
2021/12/21 03:15:23;;;;;;;55.97;23.67;;;;;;;;;;5043401;28;20041;-70
2021/12/21 03:17:50;;;;;;;46.40;17.83;;;;;;;;;;5044449;28;20482;-72
2021/12/21 03:20:16;;;;;;;66.28;25.00;;;;;;;;;;5044137;28;20463;-70
2021/12/21 03:22:42;;;;;;;55.38;23.15;;;;;;;;;;5043635;28;20505;-70
2021/12/21 03:25:09;;;;;;;67.68;24.85;;;;;;;;;;5042447;28;20525;-70
2021/12/21 03:27:35;;;;;;;78.45;26.80;;;;;;;;;;5040273;28;20028;-70
2021/12/21 03:30:01;;;;;;;78.97;27.60;;;;;;;;;;5045398;28;20033;-69
2021/12/21 03:32:27;;;;;;;74.95;26.63;;;;;;;;;;5045170;28;20036;-70
2021/12/21 03:34:53;;;;;;;68.65;28.25;;;;;;;;;;5043343;28;20020;-70
2021/12/21 03:37:19;;;;;;;72.85;28.50;;;;;;;;;;5045397;28;20025;-70
2021/12/21 03:39:46;;;;;;;80.15;28.25;;;;;;;;;;5059028;28;20030;-71
2021/12/21 03:42:13;;;;;;;76.43;27.80;;;;;;;;;;5043138;28;20051;-71
2021/12/21 03:44:40;;;;;;;73.97;26.85;;;;;;;;;;5041530;28;20338;-71
2021/12/21 03:47:09;;;;;;;86.25;29.50;;;;;;;;;;5042488;28;20036;-71
2021/12/21 03:52:12;;;;;;;91.40;30.08;;;;;;;;;;5042699;28;20033;-71
2021/12/21 03:54:39;;;;;;;74.88;30.23;;;;;;;;;;5039842;28;20037;-71
2021/12/21 03:57:05;;;;;;;75.68;27.52;;;;;;;;;;5039588;28;20029;-71
2021/12/21 03:59:31;;;;;;;68.57;28.40;;;;;;;;;;5053076;28;20075;-71
2021/12/21 04:01:58;;;;;;;66.80;27.52;;;;;;;;;;5039687;28;20021;-71
2021/12/21 04:04:24;;;;;;;80.60;29.75;;;;;;;;;;5040809;28;20087;-71
2021/12/21 04:06:51;;;;;;;67.18;26.70;;;;;;;;;;5024197;28;20099;-71
2021/12/21 04:09:17;;;;;;;78.85;28.20;;;;;;;;;;5039398;28;20033;-71
2021/12/21 04:11:43;;;;;;;62.55;27.35;;;;;;;;;;5040825;28;20025;-71
2021/12/21 04:14:09;;;;;;;62.83;25.75;;;;;;;;;;5057400;28;20037;-71
2021/12/21 04:16:35;;;;;;;61.00;23.00;;;;;;;;;;5043226;28;20025;-72
2021/12/21 04:19:01;;;;;;;53.30;22.52;;;;;;;;;;5040590;28;20017;-69
2021/12/21 04:21:27;;;;;;;55.78;22.08;;;;;;;;;;5043868;28;20079;-70
2021/12/21 04:23:53;;;;;;;51.78;21.95;;;;;;;;;;5038904;28;20365;-70
2021/12/21 04:26:20;;;;;;;56.45;24.38;;;;;;;;;;5041247;28;20033;-71
2021/12/21 04:28:46;;;;;;;56.22;21.63;;;;;;;;;;5055738;28;20029;-71
2021/12/21 04:31:12;;;;;;;55.47;23.33;;;;;;;;;;5054980;28;20063;-71
2021/12/21 04:33:39;;;;;;;58.90;23.40;;;;;;;;;;5038535;28;20677;-71
2021/12/21 04:36:05;;;;;;;63.50;22.80;;;;;;;;;;5040551;28;20025;-70
2021/12/21 04:38:36;;;;;;;78.97;24.58;;;;;;;;;;5041038;28;20029;-70
2021/12/21 04:41:09;;;;;;;63.80;24.15;;;;;;;;;;5040184;28;20033;-70
2021/12/21 04:43:35;;;;;;;71.63;24.00;;;;;;;;;;5037871;28;20187;-70
2021/12/21 04:46:01;;;;;;;66.65;23.95;;;;;;;;;;5043105;28;20109;-70
2021/12/21 04:48:27;;;;;;;69.88;25.58;;;;;;;;;;5043304;28;20474;-70
2021/12/21 04:50:53;;;;;;;70.07;25.05;;;;;;;;;;5039879;28;20052;-70
2021/12/21 04:53:19;;;;;;;68.03;26.50;;;;;;;;;;5034793;28;20037;-71
2021/12/21 04:55:46;;;;;;;81.00;25.92;;;;;;;;;;5037892;28;20553;-71
2021/12/21 04:58:12;;;;;;;71.97;26.30;;;;;;;;;;5038302;28;20061;-71
2021/12/21 05:00:38;;;;;;;94.65;28.23;;;;;;;;;;5033981;28;20486;-70
2021/12/21 05:03:05;;;;;;;80.68;26.48;;;;;;;;;;5038494;28;20038;-70
2021/12/21 05:05:31;;;;;;;78.63;27.85;;;;;;;;;;5044742;28;20056;-71
2021/12/21 05:10:33;;;;;;;75.18;27.95;;;;;;;;;;5043096;28;20083;-71
2021/12/21 05:12:59;;;;;;;73.00;26.77;;;;;;;;;;5045116;28;20110;-70
2021/12/21 05:15:25;;;;;;;75.65;27.55;;;;;;;;;;5039591;28;20663;-70
2021/12/21 05:17:51;;;;;;;72.60;26.80;;;;;;;;;;5037100;28;20021;-71
2021/12/21 05:20:17;;;;;;;71.65;27.23;;;;;;;;;;5042119;28;20371;-71
2021/12/21 05:22:43;;;;;;;87.25;31.85;;;;;;;;;;5040496;28;20040;-71
2021/12/21 05:25:10;;;;;;;81.05;29.45;;;;;;;;;;5039789;28;20044;-74
2021/12/21 05:27:36;;;;;;;69.72;27.02;;;;;;;;;;5041672;28;20036;-71
2021/12/21 05:30:02;;;;;;;72.05;27.75;;;;;;;;;;5037890;28;20087;-71
2021/12/21 05:32:28;;;;;;;80.90;28.88;;;;;;;;;;5057773;28;20025;-71
2021/12/21 05:34:54;;;;;;;78.68;29.10;;;;;;;;;;5042600;28;20021;-71
2021/12/21 05:37:20;;;;;;;73.85;28.33;;;;;;;;;;5041136;28;20493;-70
2021/12/21 05:42:21;;;;;;;88.22;27.55;;;;;;;;;;5039656;28;20040;-70
2021/12/21 05:44:49;;;;;;;72.85;26.55;;;;;;;;;;5056849;28;20080;-70
2021/12/21 05:47:16;;;;;;;79.38;28.70;;;;;;;;;;5023265;28;20053;-70
2021/12/21 05:49:42;;;;;;;75.18;28.92;;;;;;;;;;5038580;28;20057;-70
2021/12/21 05:52:08;;;;;;;64.90;28.55;;;;;;;;;;5037306;28;20371;-70
2021/12/21 05:54:34;;;;;;;81.65;27.92;;;;;;;;;;5042483;28;20112;-70
2021/12/21 05:57:00;;;;;;;64.90;27.17;;;;;;;;;;5042024;28;20032;-70
2021/12/21 05:59:26;;;;;;;69.63;27.52;;;;;;;;;;5040829;28;20136;-70
2021/12/21 06:01:52;;;;;;;77.07;29.80;;;;;;;;;;5040047;28;20029;-70
2021/12/21 06:04:18;;;;;;;77.25;30.70;;;;;;;;;;5039398;28;20514;-71
2021/12/21 06:06:45;;;;;;;77.28;29.50;;;;;;;;;;5037368;28;20025;-70
2021/12/21 06:09:12;;;;;;;70.72;28.15;;;;;;;;;;5037931;28;20479;-73
2021/12/21 06:11:47;;;;;;;81.75;28.83;;;;;;;;;;5043953;28;20021;-71
2021/12/21 06:27:06;;;;;;;79.75;29.88;;;;;;;;;;5045168;28;20032;-71
2021/12/21 06:29:32;;;;;;;92.82;31.92;;;;;;;;;;5042143;28;20444;-72
2021/12/21 06:31:58;;;;;;;79.03;30.67;;;;;;;;;;5040721;28;20057;-72
2021/12/21 06:34:24;;;;;;;80.95;32.90;;;;;;;;;;5046424;28;20025;-72
2021/12/21 06:36:50;;;;;;;84.40;33.50;;;;;;;;;;5046594;28;20029;-71
2021/12/21 06:39:16;;;;;;;84.90;30.55;;;;;;;;;;5042947;28;20060;-71
2021/12/21 06:41:43;;;;;;;82.13;31.13;;;;;;;;;;5043242;28;20381;-72
2021/12/21 06:44:27;;;;;;;81.45;31.45;;;;;;;;;;5042734;28;20098;-71
2021/12/21 06:52:05;;;;;;;73.15;31.25;;;;;;;;;;5045640;28;20044;-71
2021/12/21 06:54:31;;;;;;;85.57;32.25;;;;;;;;;;5042481;28;20047;-71
2021/12/21 06:56:57;;;;;;;74.25;30.23;;;;;;;;;;5062602;28;20040;-71
2021/12/21 06:59:23;;;;;;;93.05;33.15;;;;;;;;;;5047954;28;20047;-71
2021/12/21 07:01:49;;;;;;;75.20;30.30;;;;;;;;;;5049794;28;20033;-70
2021/12/21 07:04:19;;;;;;;81.65;32.47;;;;;;;;;;5026572;28;20179;-70
2021/12/21 07:06:46;;;;;;;75.65;30.95;;;;;;;;;;5042591;28;20020;-70
2021/12/21 07:09:21;;;;;;;87.32;32.55;;;;;;;;;;5044069;28;20521;-70
2021/12/21 07:11:55;;;;;;;83.57;31.70;;;;;;;;;;5045235;28;20076;-71
2021/12/21 07:19:51;;;;;;;80.28;31.77;;;;;;;;;;5045225;28;20082;-71
2021/12/21 07:22:17;;;;;;;82.25;31.38;;;;;;;;;;5038143;28;20547;-71
2021/12/21 07:24:44;;;;;;;75.60;32.40;;;;;;;;;;5042759;28;20041;-73
2021/12/21 07:27:10;;;;;;;84.22;31.95;;;;;;;;;;5045645;28;20025;-71
2021/12/21 07:29:36;;;;;;;85.53;29.50;;;;;;;;;;5044773;28;20115;-72
2021/12/21 07:32:02;;;;;;;80.60;30.33;;;;;;;;;;5043195;28;20060;-71
2021/12/21 07:34:28;;;;;;;74.18;32.28;;;;;;;;;;5045396;28;20021;-71
2021/12/21 07:36:54;;;;;;;73.15;29.67;;;;;;;;;;5041267;28;20028;-71
2021/12/21 07:39:21;;;;;;;87.70;31.50;;;;;;;;;;5042937;28;20060;-70
2021/12/21 07:41:47;;;;;;;77.72;30.48;;;;;;;;;;5041893;28;20100;-70
2021/12/21 07:44:13;;;;;;;76.25;30.67;;;;;;;;;;5040663;28;20025;-71
2021/12/21 07:46:40;;;;;;;91.57;30.75;;;;;;;;;;5045785;28;20108;-73
2021/12/21 07:49:06;;;;;;;85.35;32.53;;;;;;;;;;5040546;28;20095;-70
2021/12/21 07:51:32;;;;;;;73.72;29.55;;;;;;;;;;5040628;28;20140;-71
2021/12/21 07:53:58;;;;;;;84.35;31.63;;;;;;;;;;5058459;28;20059;-71
2021/12/21 07:56:24;;;;;;;70.40;29.75;;;;;;;;;;5042119;28;20066;-71
2021/12/21 07:58:50;;;;;;;79.68;30.92;;;;;;;;;;5045233;28;20033;-71
2021/12/21 08:01:17;;;;;;;79.50;30.75;;;;;;;;;;5042544;28;20152;-71
2021/12/21 08:03:43;;;;;;;91.78;32.75;;;;;;;;;;5042599;28;20029;-72
2021/12/21 08:06:12;;;;;;;71.78;30.95;;;;;;;;;;5045689;28;20565;-71
2021/12/21 08:08:41;;;;;;;83.60;31.30;;;;;;;;;;5043191;28;20453;-71
2021/12/21 08:11:14;;;;;;;78.45;31.00;;;;;;;;;;5037907;28;20022;-72
2021/12/21 08:13:41;;;;;;;80.25;31.70;;;;;;;;;;5043032;28;20120;-72
2021/12/21 08:16:08;;;;;;;78.45;31.35;;;;;;;;;;5035823;28;20470;-73
2021/12/21 08:18:34;;;;;;;88.78;32.15;;;;;;;;;;5041886;28;20494;-71
2021/12/21 08:21:00;;;;;;;73.68;31.83;;;;;;;;;;5038529;28;20087;-72
2021/12/21 08:23:27;;;;;;;88.97;31.45;;;;;;;;;;5046480;28;20033;-71
2021/12/21 08:25:54;;;;;;;83.20;30.85;;;;;;;;;;5046334;28;20135;-71
2021/12/21 08:28:21;;;;;;;83.90;32.28;;;;;;;;;;5042078;28;20486;-73
2021/12/21 08:30:47;;;;;;;92.38;32.42;;;;;;;;;;5042624;28;20496;-71
2021/12/21 08:33:13;;;;;;;80.20;33.97;;;;;;;;;;5043119;28;20045;-71
2021/12/21 08:35:39;;;;;;;77.55;33.20;;;;;;;;;;5044862;28;20045;-71
2021/12/21 08:38:08;;;;;;;84.07;33.70;;;;;;;;;;5040660;28;20043;-73
2021/12/21 08:40:39;;;;;;;107.90;34.05;;;;;;;;;;5027484;28;20494;-71
2021/12/21 08:43:11;;;;;;;90.43;35.78;;;;;;;;;;5037208;28;20470;-71
2021/12/21 08:45:39;;;;;;;94.15;35.75;;;;;;;;;;5039404;28;20052;-71
2021/12/21 08:48:05;;;;;;;80.15;34.75;;;;;;;;;;5042292;28;20025;-72
2021/12/21 08:50:32;;;;;;;93.50;37.40;;;;;;;;;;5044947;28;20053;-72
2021/12/21 08:52:58;;;;;;;97.55;38.47;;;;;;;;;;5042030;28;20028;-72
2021/12/21 08:55:25;;;;;;;99.43;39.42;;;;;;;;;;5043001;28;20024;-72
2021/12/21 08:57:51;;;;;;;85.80;36.65;;;;;;;;;;5038299;28;20449;-72
2021/12/21 09:00:17;;;;;;;100.13;40.50;;;;;;;;;;5041083;28;20170;-73
2021/12/21 09:02:43;;;;;;;97.78;40.65;;;;;;;;;;5061334;28;20033;-72
2021/12/21 09:05:16;;;;;;;100.95;39.90;;;;;;;;;;5033247;28;20037;-72
2021/12/21 09:07:49;;;;;;;91.18;40.67;;;;;;;;;;5040282;28;20446;-72
2021/12/21 09:10:17;;;;;;;104.45;41.45;;;;;;;;;;5035159;28;20025;-72
2021/12/21 09:12:43;;;;;;;101.78;40.92;;;;;;;;;;5045711;28;20024;-73
2021/12/21 09:15:10;;;;;;;91.63;40.58;;;;;;;;;;5046671;28;20108;-72
2021/12/21 09:17:36;;;;;;;97.07;40.45;;;;;;;;;;5042440;28;20029;-73
2021/12/21 09:20:03;;;;;;;102.85;42.95;;;;;;;;;;5039043;28;20029;-72
2021/12/21 09:22:29;;;;;;;90.57;40.72;;;;;;;;;;5047608;28;20040;-72
2021/12/21 09:24:57;;;;;;;100.60;43.22;;;;;;;;;;5047779;28;20047;-72
2021/12/21 09:27:24;;;;;;;108.32;44.25;;;;;;;;;;5030567;28;20488;-72
2021/12/21 09:29:50;;;;;;;107.75;43.78;;;;;;;;;;5037592;28;20033;-71
2021/12/21 09:32:18;;;;;;;120.32;47.40;;;;;;;;;;5041140;28;20025;-72
2021/12/21 09:34:45;;;;;;;108.10;46.42;;;;;;;;;;5039605;28;20338;-72
2021/12/21 09:37:15;;;;;;;122.70;59.60;;;;;;;;;;5042914;28;20068;-71
2021/12/21 09:39:46;;;;;;;128.57;52.00;;;;;;;;;;5042918;28;20029;-73
2021/12/21 09:42:13;;;;;;;87.55;36.55;;;;;;;;;;5037944;28;20082;-71
2021/12/21 09:44:39;;;;;;;114.97;54.95;;;;;;;;;;5027608;28;20132;-72
2021/12/21 09:47:09;;;;;;;125.30;55.25;;;;;;;;;;5031991;28;20112;-71
2021/12/21 09:49:35;;;;;;;164.43;78.88;;;;;;;;;;5019431;28;20511;-73
2021/12/21 09:52:01;;;;;;;162.75;80.82;;;;;;;;;;5038614;28;20444;-72
2021/12/21 09:54:28;;;;;;;125.10;52.65;;;;;;;;;;5043840;28;20032;-73
2021/12/21 09:56:54;;;;;;;113.00;48.35;;;;;;;;;;5040588;28;20109;-72
2021/12/21 09:59:20;;;;;;;114.93;51.78;;;;;;;;;;5042918;28;20056;-72
2021/12/21 10:01:46;;;;;;;106.80;48.38;;;;;;;;;;5034046;28;20030;-71
2021/12/21 10:04:12;;;;;;;112.55;49.78;;;;;;;;;;5034424;28;20121;-72
2021/12/21 10:06:49;;;;;;;113.55;50.92;;;;;;;;;;5035740;28;20147;-72
2021/12/21 10:09:15;;;;;;;118.32;50.13;;;;;;;;;;5038039;28;20339;-72
2021/12/21 10:11:47;;;;;;;116.13;51.60;;;;;;;;;;5037069;28;20030;-72
2021/12/21 10:14:14;;;;;;;121.93;52.30;;;;;;;;;;5035477;28;20029;-73
2021/12/21 10:16:40;;;;;;;130.55;53.97;;;;;;;;;;5031309;28;20041;-72
2021/12/21 10:19:06;;;;;;;130.85;51.80;;;;;;;;;;5049738;28;20032;-73
2021/12/21 10:21:32;;;;;;;135.60;55.78;;;;;;;;;;5045015;28;20030;-73
2021/12/21 10:23:58;;;;;;;125.30;54.35;;;;;;;;;;5039167;28;20430;-73
2021/12/21 10:26:25;;;;;;;129.32;53.72;;;;;;;;;;5030831;28;20073;-74
2021/12/21 10:28:52;;;;;;;124.43;54.78;;;;;;;;;;5045471;28;20025;-74
2021/12/21 10:31:32;;;;;;;133.48;55.53;;;;;;;;;;5040238;28;20081;-74
2021/12/21 10:33:59;;;;;;;120.43;52.13;;;;;;;;;;5046205;28;20040;-73
2021/12/21 10:36:26;;;;;;;113.93;54.83;;;;;;;;;;5045183;28;20037;-73
2021/12/21 10:38:57;;;;;;;126.40;57.90;;;;;;;;;;5039841;28;20033;-75
2021/12/21 10:41:32;;;;;;;133.30;52.88;;;;;;;;;;5045232;28;20682;-72
2021/12/21 10:44:03;;;;;;;136.70;55.58;;;;;;;;;;5043532;28;20474;-75
2021/12/21 10:46:29;;;;;;;;;;;;;;;;;;5044614;28;20059;-72
2021/12/21 10:49:05;;;;;;;114.93;50.72;;;;;;;;;;5043778;28;20066;-74
2021/12/21 10:51:31;;;;;;;109.18;48.72;;;;;;;;;;5046632;28;20086;-75
2021/12/21 10:53:57;;;;;;;119.13;50.40;;;;;;;;;;5044554;28;20513;-75
2021/12/21 10:56:23;;;;;;;109.32;48.85;;;;;;;;;;5042865;28;20022;-75
2021/12/21 10:58:49;;;;;;;128.38;50.20;;;;;;;;;;5038655;28;20022;-75
2021/12/21 11:01:20;;;;;;;114.43;49.70;;;;;;;;;;5043532;28;20052;-74
2021/12/21 11:03:52;;;;;;;133.45;51.95;;;;;;;;;;5043778;28;20041;-75
2021/12/21 11:06:22;;;;;;;108.40;47.83;;;;;;;;;;5038893;28;20025;-74
2021/12/21 11:08:50;;;;;;;110.75;46.53;;;;;;;;;;5037076;28;20035;-76
2021/12/21 11:11:27;;;;;;;107.10;46.55;;;;;;;;;;5043500;28;20032;-75
2021/12/21 11:14:02;;;;;;;104.18;46.38;;;;;;;;;;5038600;28;20440;-75
2021/12/21 11:16:40;;;;;;;100.55;41.67;;;;;;;;;;5041559;28;20036;-76
2021/12/21 11:19:06;;;;;;;95.45;42.20;;;;;;;;;;5036623;28;20390;-75
2021/12/21 11:21:33;;;;;;;87.55;40.72;;;;;;;;;;5043726;28;20423;-74
2021/12/21 11:24:10;;;;;;;102.03;44.10;;;;;;;;;;5040030;28;20151;-75
2021/12/21 11:26:37;;;;;;;91.35;38.53;;;;;;;;;;5042862;28;20025;-75
2021/12/21 11:29:07;;;;;;;85.55;38.30;;;;;;;;;;5040398;28;20029;-74
2021/12/21 11:31:37;;;;;;;90.30;41.10;;;;;;;;;;5045033;28;20056;-74
2021/12/21 11:34:04;;;;;;;92.13;40.15;;;;;;;;;;5041340;28;20033;-75
2021/12/21 11:39:15;;;;;;;85.85;41.55;;;;;;;;;;5043745;28;20048;-75
2021/12/21 11:41:43;;;;;;;88.22;41.45;;;;;;;;;;5035010;28;20162;-74
2021/12/21 11:44:12;;;;;;;92.10;40.42;;;;;;;;;;5042081;28;20036;-74
2021/12/21 11:46:59;;;;;;;89.65;39.40;;;;;;;;;;5044963;28;20032;-75
2021/12/21 11:49:40;;;;;;;88.47;41.47;;;;;;;;;;5041720;28;20570;-74
2021/12/21 11:52:13;;;;;;;92.50;39.35;;;;;;;;;;5046577;28;20033;-74
2021/12/21 11:54:50;;;;;;;84.10;39.88;;;;;;;;;;5045629;28;20025;-74
2021/12/21 11:57:18;;;;;;;75.18;36.40;;;;;;;;;;5046247;28;20033;-75
2021/12/21 11:59:44;;;;;;;82.50;37.25;;;;;;;;;;5040985;28;20549;-75
2021/12/21 12:02:10;;;;;;;80.28;35.60;;;;;;;;;;5047154;28;20103;-75
2021/12/21 12:04:37;;;;;;;67.47;35.67;;;;;;;;;;5044059;28;20021;-76
2021/12/21 12:07:15;;;;;;;78.80;34.20;;;;;;;;;;5043287;28;20032;-74
2021/12/21 12:09:41;;;;;;;64.60;33.70;;;;;;;;;;5039838;28;20454;-75
2021/12/21 12:12:28;;;;;;;63.88;31.83;;;;;;;;;;5039710;28;20410;-75
2021/12/21 12:14:59;;;;;;;73.32;34.28;;;;;;;;;;5035333;28;20017;-75
2021/12/21 12:17:26;;;;;;;72.28;31.75;;;;;;;;;;5041871;28;20080;-75
2021/12/21 12:20:01;;;;;;;61.13;30.20;;;;;;;;;;5029597;28;20173;-75
2021/12/21 12:22:33;;;;;;;66.45;33.17;;;;;;;;;;5041909;28;20092;-75
2021/12/21 12:24:59;;;;;;;67.55;32.00;;;;;;;;;;5043870;28;20211;-77
2021/12/21 12:27:27;;;;;;;56.22;25.25;;;;;;;;;;5043733;28;20147;-74
2021/12/21 12:29:55;;;;;;;47.55;24.85;;;;;;;;;;5044887;28;20025;-73
2021/12/21 12:32:40;;;;;;;38.78;18.48;;;;;;;;;;5030428;28;20035;-74
2021/12/21 12:35:14;;;;;;;31.90;16.58;;;;;;;;;;5034363;28;20148;-73
2021/12/21 12:37:54;;;;;;;33.83;16.58;;;;;;;;;;5038922;28;20111;-73
2021/12/21 12:40:21;;;;;;;29.08;13.45;;;;;;;;;;5041467;28;20032;-74
2021/12/21 12:43:13;;;;;;;23.55;13.55;;;;;;;;;;5037843;28;20059;-74
2021/12/21 12:45:41;;;;;;;22.88;13.00;;;;;;;;;;5017752;28;20160;-74
2021/12/21 12:48:18;;;;;;;37.80;13.48;;;;;;;;;;5041328;28;20383;-73
2021/12/21 12:50:45;;;;;;;26.10;13.30;;;;;;;;;;5040895;28;20045;-73
2021/12/21 12:53:11;;;;;;;28.42;13.73;;;;;;;;;;5045845;28;20023;-74
2021/12/21 12:55:51;;;;;;;25.58;13.25;;;;;;;;;;5034703;28;20053;-73
2021/12/21 12:58:22;;;;;;;29.98;14.55;;;;;;;;;;5038508;28;20025;-73
2021/12/21 13:01:03;;;;;;;30.13;15.38;;;;;;;;;;5035815;28;20084;-73
2021/12/21 13:03:43;;;;;;;36.58;17.20;;;;;;;;;;5037873;28;20124;-73
2021/12/21 13:06:17;;;;;;;38.15;16.30;;;;;;;;;;5037114;28;20025;-76
2021/12/21 13:08:46;;;;;;;30.23;15.10;;;;;;;;;;5039631;28;20562;-75
2021/12/21 13:11:12;;;;;;;34.42;16.00;;;;;;;;;;5038624;28;20024;-74
2021/12/21 13:13:40;;;;;;;29.77;15.30;;;;;;;;;;5041040;28;20051;-75
2021/12/21 13:16:10;;;;;;;32.10;15.32;;;;;;;;;;5042782;28;20554;-75
2021/12/21 13:18:47;;;;;;;35.70;15.68;;;;;;;;;;5041613;28;20021;-74
2021/12/21 13:21:21;;;;;;;30.95;14.98;;;;;;;;;;5048934;28;20087;-74
2021/12/21 13:23:50;;;;;;;34.58;15.70;;;;;;;;;;5055851;28;20051;-77
2021/12/21 13:26:16;;;;;;;55.88;27.08;;;;;;;;;;5050017;28;20021;-74
2021/12/21 13:28:50;;;;;;;35.85;15.35;;;;;;;;;;5036451;28;20125;-73
2021/12/21 13:31:17;;;;;;;32.90;14.63;;;;;;;;;;5044449;28;20427;-73
2021/12/21 13:33:43;;;;;;;33.42;14.75;;;;;;;;;;5045594;28;20555;-73
2021/12/21 13:36:10;;;;;;;26.45;14.23;;;;;;;;;;5041302;28;20075;-73
2021/12/21 13:38:37;;;;;;;36.25;15.25;;;;;;;;;;5038423;28;20095;-74
2021/12/21 13:41:15;;;;;;;31.63;14.15;;;;;;;;;;5038793;28;20037;-73
2021/12/21 13:43:55;;;;;;;27.13;14.13;;;;;;;;;;5043541;28;20075;-73
2021/12/21 13:46:21;;;;;;;29.98;13.57;;;;;;;;;;5036758;28;20033;-72
2021/12/21 13:48:54;;;;;;;25.50;13.07;;;;;;;;;;5037715;28;20520;-73
2021/12/21 13:51:20;;;;;;;27.52;13.18;;;;;;;;;;5045914;28;20033;-75
2021/12/21 13:53:48;;;;;;;30.63;12.75;;;;;;;;;;5039139;28;20056;-74
2021/12/21 13:56:16;;;;;;;26.38;12.25;;;;;;;;;;5044672;28;20029;-74
2021/12/21 13:58:43;;;;;;;26.00;11.70;;;;;;;;;;5045171;28;20041;-73
2021/12/21 14:01:16;;;;;;;25.55;11.30;;;;;;;;;;5041830;28;20043;-72
2021/12/21 14:03:46;;;;;;;26.83;11.32;;;;;;;;;;5043656;28;20529;-74
2021/12/21 14:06:15;;;;;;;34.47;11.93;;;;;;;;;;5034462;28;20025;-74
2021/12/21 14:08:45;;;;;;;23.80;10.82;;;;;;;;;;5030928;28;20764;-74
2021/12/21 14:11:14;;;;;;;27.23;12.35;;;;;;;;;;5040156;28;20083;-74
2021/12/21 14:13:42;;;;;;;32.78;13.18;;;;;;;;;;5035331;28;20032;-74
2021/12/21 14:16:12;;;;;;;23.95;12.50;;;;;;;;;;5041943;28;20052;-74
2021/12/21 14:18:41;;;;;;;30.20;12.02;;;;;;;;;;5041817;28;20052;-74
2021/12/21 14:21:07;;;;;;;29.60;11.90;;;;;;;;;;5037766;28;20033;-74
2021/12/21 14:23:34;;;;;;;25.02;11.68;;;;;;;;;;5032588;28;20503;-74
2021/12/21 14:26:12;;;;;;;27.00;12.43;;;;;;;;;;5031879;28;20061;-74
2021/12/21 14:28:57;;;;;;;34.00;11.73;;;;;;;;;;5043579;28;20029;-74
2021/12/21 14:31:31;;;;;;;24.67;12.02;;;;;;;;;;5040047;28;20100;-74
2021/12/21 14:33:58;;;;;;;26.42;12.63;;;;;;;;;;5039619;28;20394;-74
2021/12/21 14:36:25;;;;;;;23.52;12.07;;;;;;;;;;5034714;28;20029;-73
2021/12/21 14:38:52;;;;;;;25.95;13.73;;;;;;;;;;5036690;28;20044;-74
2021/12/21 14:41:22;;;;;;;27.98;12.55;;;;;;;;;;5047864;28;20031;-74
2021/12/21 14:43:59;;;;;;;25.52;13.85;;;;;;;;;;5044087;28;20045;-74
2021/12/21 14:46:25;;;;;;;30.20;14.63;;;;;;;;;;5046536;28;20025;-74
2021/12/21 14:49:02;;;;;;;50.85;23.33;;;;;;;;;;5040184;28;20036;-74
2021/12/21 14:51:33;;;;;;;36.30;15.15;;;;;;;;;;5038610;28;20037;-74
2021/12/21 14:54:07;;;;;;;38.38;15.50;;;;;;;;;;5046366;28;20037;-74
2021/12/21 14:56:35;;;;;;;29.75;13.82;;;;;;;;;;5036236;28;20513;-74
2021/12/21 14:59:03;;;;;;;32.25;13.80;;;;;;;;;;5040915;28;20026;-74
2021/12/21 15:01:41;;;;;;;37.50;14.60;;;;;;;;;;5045296;28;20155;-74
2021/12/21 15:04:18;;;;;;;30.58;13.70;;;;;;;;;;5040093;28;20109;-73
2021/12/21 15:06:44;;;;;;;28.02;14.43;;;;;;;;;;5033712;28;20048;-74
2021/12/21 15:09:10;;;;;;;27.13;14.00;;;;;;;;;;5042825;28;20519;-74
2021/12/21 15:11:36;;;;;;;32.92;15.43;;;;;;;;;;5047362;28;20029;-74
2021/12/21 15:14:03;;;;;;;37.55;18.55;;;;;;;;;;5038282;28;20057;-74
2021/12/21 15:16:29;;;;;;;52.05;24.48;;;;;;;;;;5052088;28;20567;-74
2021/12/21 15:18:55;;;;;;;38.50;16.02;;;;;;;;;;5049317;28;20032;-74
2021/12/21 15:21:21;;;;;;;51.38;25.45;;;;;;;;;;5044089;28;20068;-74
2021/12/21 15:23:47;;;;;;;43.50;18.25;;;;;;;;;;5045777;28;20041;-74
2021/12/21 15:26:13;;;;;;;45.05;22.30;;;;;;;;;;5047696;28;20028;-73
2021/12/21 15:28:39;;;;;;;60.35;29.00;;;;;;;;;;5045263;28;20090;-74
2021/12/21 15:31:05;;;;;;;84.32;46.45;;;;;;;;;;5029278;28;20609;-74
2021/12/21 15:33:31;;;;;;;54.35;27.65;;;;;;;;;;5044025;28;20056;-74
2021/12/21 15:35:57;;;;;;;65.30;33.60;;;;;;;;;;5049747;28;20032;-74